createdAt,value
2022-10-23T03:00:21.661Z,12.30
2022-10-23T03:02:56.107Z,12.30
2022-10-23T03:05:29.160Z,12.30
2022-10-23T03:07:57.591Z,12.20
2022-10-23T03:10:25.920Z,12.20
2022-10-23T03:12:54.151Z,12.20
2022-10-23T03:15:23.753Z,12.20
2022-10-23T03:17:52.965Z,12.10
2022-10-23T03:20:21.187Z,12.10
2022-10-23T03:22:49.115Z,12.20
2022-10-23T03:25:17.085Z,12.20
2022-10-23T03:27:46.586Z,12.20
2022-10-23T03:30:17.265Z,12.20
2022-10-23T03:32:46.598Z,12.30
2022-10-23T03:35:14.566Z,12.30
2022-10-23T03:37:42.776Z,12.20
2022-10-23T03:40:12.354Z,12.20
2022-10-23T03:42:40.550Z,12.20
2022-10-23T03:45:10.578Z,12.20
2022-10-23T03:47:41.413Z,12.20
2022-10-23T03:50:13.416Z,12.20
2022-10-23T03:52:41.953Z,12.30
2022-10-23T03:55:13.287Z,12.30
2022-10-23T03:57:41.145Z,12.30
2022-10-23T04:00:10.028Z,12.30
2022-10-23T04:02:48.783Z,12.30
2022-10-23T04:05:19.060Z,12.20
2022-10-23T04:07:55.437Z,12.20
2022-10-23T04:10:23.445Z,12.10
2022-10-23T04:12:51.906Z,12.10
2022-10-23T04:15:19.766Z,12.10
2022-10-23T04:17:47.788Z,12.00
2022-10-23T04:20:16.046Z,11.90
2022-10-23T04:22:45.758Z,11.80
2022-10-23T04:25:14.464Z,11.90
2022-10-23T04:27:42.794Z,11.90
2022-10-23T04:30:12.229Z,11.90
2022-10-23T04:32:40.607Z,11.90
2022-10-23T04:35:09.357Z,12.00
2022-10-23T04:37:37.247Z,12.00
2022-10-23T04:40:08.111Z,12.00
2022-10-23T04:42:37.630Z,12.00
2022-10-23T04:45:06.156Z,11.90
2022-10-23T04:47:34.907Z,11.90
2022-10-23T04:50:04.659Z,11.90
2022-10-23T04:52:55.528Z,11.90
2022-10-23T04:55:51.655Z,12.00
2022-10-23T04:58:28.634Z,12.00
2022-10-23T05:00:59.389Z,12.00
2022-10-23T05:03:27.958Z,12.00
2022-10-23T05:05:57.513Z,12.00
2022-10-23T05:08:45.603Z,12.00
2022-10-23T05:11:30.944Z,11.90
2022-10-23T05:13:59.228Z,11.80
2022-10-23T05:16:38.110Z,11.70
2022-10-23T05:19:08.316Z,11.70
2022-10-23T05:21:37.996Z,11.50
2022-10-23T05:24:08.028Z,11.50
2022-10-23T05:26:37.440Z,11.50
2022-10-23T05:29:08.620Z,11.40
2022-10-23T05:31:37.410Z,11.50
2022-10-23T05:34:15.374Z,11.30
2022-10-23T05:36:45.867Z,11.40
2022-10-23T05:39:15.643Z,11.50
2022-10-23T05:41:48.373Z,11.50
2022-10-23T05:44:21.836Z,11.50
2022-10-23T05:47:09.979Z,11.60
2022-10-23T05:49:56.494Z,11.70
2022-10-23T05:52:47.774Z,11.70
2022-10-23T05:55:30.976Z,11.60
2022-10-23T05:58:26.393Z,11.60
2022-10-23T06:01:05.371Z,11.50
2022-10-23T06:03:54.059Z,11.60
2022-10-23T06:06:27.386Z,11.60
2022-10-23T06:08:55.757Z,11.60
2022-10-23T06:11:24.118Z,11.50
2022-10-23T06:14:04.883Z,11.50
2022-10-23T06:16:32.888Z,11.50
2022-10-23T06:19:01.104Z,11.50
2022-10-23T06:21:28.998Z,11.60
2022-10-23T06:23:57.434Z,11.60
2022-10-23T06:26:37.355Z,11.60
2022-10-23T06:29:18.323Z,11.70
2022-10-23T06:31:46.222Z,11.70
2022-10-23T06:34:14.531Z,11.70
2022-10-23T06:36:42.645Z,11.60
2022-10-23T06:39:31.968Z,11.50
2022-10-23T06:42:08.199Z,11.60
2022-10-23T06:44:57.447Z,11.60
2022-10-23T06:47:45.467Z,11.70
2022-10-23T06:50:38.524Z,11.60
2022-10-23T06:53:12.572Z,11.80
2022-10-23T06:55:48.984Z,11.80
2022-10-23T06:58:19.745Z,11.70
2022-10-23T07:01:13.862Z,11.70
2022-10-23T07:03:43.983Z,11.60
2022-10-23T07:06:12.921Z,11.60
2022-10-23T07:08:40.972Z,11.50
2022-10-23T07:11:28.863Z,11.50
2022-10-23T07:13:58.219Z,11.50
2022-10-23T07:16:28.140Z,11.60
2022-10-23T07:18:59.747Z,11.70
2022-10-23T07:21:28.146Z,11.70
2022-10-23T07:24:02.604Z,11.70
2022-10-23T07:26:32.842Z,11.80
2022-10-23T07:29:01.317Z,11.80
2022-10-23T07:31:30.789Z,11.80
2022-10-23T07:34:33.879Z,11.80
2022-10-23T07:37:20.582Z,11.90
2022-10-23T07:39:48.528Z,11.90
2022-10-23T07:42:16.430Z,12.10
2022-10-23T07:44:44.558Z,12.10
2022-10-23T07:47:14.265Z,12.00
2022-10-23T07:49:45.452Z,11.90
2022-10-23T07:52:13.782Z,11.80
2022-10-23T07:55:10.499Z,11.80
2022-10-23T07:57:42.316Z,12.00
2022-10-23T08:00:21.030Z,12.10
2022-10-23T08:02:58.869Z,12.20
2022-10-23T08:05:26.884Z,12.20
2022-10-23T08:07:59.872Z,12.10
2022-10-23T08:10:27.850Z,12.10
2022-10-23T08:12:55.773Z,12.10
2022-10-23T08:15:41.179Z,12.20
2022-10-23T08:18:22.852Z,12.30
2022-10-23T08:20:52.474Z,12.40
2022-10-23T08:23:20.897Z,12.60
2022-10-23T08:25:49.843Z,12.70
2022-10-23T08:28:19.107Z,12.80
2022-10-23T08:30:55.452Z,12.90
2022-10-23T08:33:25.878Z,13.00
2022-10-23T08:35:54.266Z,13.00
2022-10-23T08:38:29.958Z,13.00
2022-10-23T08:41:00.256Z,13.20
2022-10-23T08:43:47.771Z,13.30
2022-10-23T08:46:41.404Z,13.40
2022-10-23T08:49:47.318Z,13.50
2022-10-23T08:52:21.300Z,13.70
2022-10-23T08:54:58.808Z,13.60
2022-10-23T08:57:37.738Z,13.70
2022-10-23T09:00:15.587Z,13.70
2022-10-23T09:02:46.549Z,13.80
2022-10-23T09:05:18.795Z,13.90
2022-10-23T09:08:09.377Z,14.00
2022-10-23T09:10:57.180Z,14.20
2022-10-23T09:13:56.329Z,14.30
2022-10-23T09:16:44.228Z,14.30
2022-10-23T09:19:16.052Z,14.40
2022-10-23T09:21:46.705Z,14.50
2022-10-23T09:24:18.443Z,14.60
2022-10-23T09:26:49.681Z,14.70
2022-10-23T09:29:24.288Z,14.80
2022-10-23T09:31:53.663Z,14.80
2022-10-23T09:34:23.331Z,14.90
2022-10-23T09:39:30.648Z,15.10
2022-10-23T09:41:59.742Z,15.20
2022-10-23T09:44:29.718Z,15.40
2022-10-23T09:47:01.516Z,15.50
2022-10-23T09:49:31.428Z,15.50
2022-10-23T09:52:05.927Z,15.70
2022-10-23T09:54:36.673Z,15.80
2022-10-23T09:57:16.371Z,15.90
2022-10-23T09:59:44.678Z,15.90
2022-10-23T10:02:22.199Z,15.90
2022-10-23T10:05:23.349Z,15.90
2022-10-23T10:08:00.227Z,15.90
2022-10-23T10:10:35.713Z,15.90
2022-10-23T10:13:16.186Z,15.90
2022-10-23T10:15:51.527Z,15.80
2022-10-23T10:18:24.280Z,15.80
2022-10-23T10:21:15.154Z,15.80
2022-10-23T10:23:50.961Z,15.90
2022-10-23T10:26:33.250Z,15.90
2022-10-23T10:29:14.470Z,15.90
2022-10-23T10:31:53.131Z,15.90
2022-10-23T10:34:29.867Z,15.90
2022-10-23T10:37:02.846Z,15.80
2022-10-23T10:39:42.090Z,15.70
2022-10-23T10:42:38.207Z,15.80
2022-10-23T10:45:34.260Z,15.70
2022-10-23T10:48:20.001Z,15.70
2022-10-23T10:51:09.253Z,15.70
2022-10-23T10:54:00.906Z,15.80
2022-10-23T10:56:35.699Z,15.80
2022-10-23T10:59:12.280Z,15.90
2022-10-23T11:01:46.607Z,16.00
2022-10-23T11:04:23.271Z,16.10
2022-10-23T11:06:53.966Z,16.10
2022-10-23T11:09:25.258Z,16.20
2022-10-23T11:11:54.579Z,16.20
2022-10-23T11:14:24.180Z,16.20
2022-10-23T11:16:54.048Z,16.20
2022-10-23T11:19:25.903Z,16.20
2022-10-23T11:21:59.343Z,16.30
2022-10-23T11:24:58.225Z,16.30
2022-10-23T11:27:38.619Z,16.40
2022-10-23T11:30:29.545Z,16.50
2022-10-23T11:33:34.210Z,16.60
2022-10-23T11:36:15.456Z,16.60
2022-10-23T11:38:45.613Z,16.40
2022-10-23T11:41:25.570Z,16.40
2022-10-23T11:44:01.436Z,16.50
2022-10-23T11:46:33.987Z,16.50
2022-10-23T11:49:03.151Z,16.60
2022-10-23T11:51:33.737Z,16.80
2022-10-23T11:54:25.991Z,17.00
2022-10-23T11:57:04.176Z,17.20
2022-10-23T11:59:35.385Z,17.30
2022-10-23T12:02:05.469Z,17.40
2022-10-23T12:04:41.578Z,17.50
2022-10-23T12:07:22.195Z,17.50
2022-10-23T12:09:55.577Z,17.50
2022-10-23T12:12:33.959Z,17.50
2022-10-23T12:15:20.006Z,17.50
2022-10-23T12:17:49.098Z,17.50
2022-10-23T12:20:49.018Z,17.40
2022-10-23T12:23:53.467Z,17.40
2022-10-23T12:26:50.515Z,17.30
2022-10-23T12:29:32.576Z,17.30
2022-10-23T12:32:14.862Z,17.40
2022-10-23T12:34:54.853Z,17.30
2022-10-23T12:37:51.415Z,17.40
2022-10-23T12:40:19.305Z,17.50
2022-10-23T12:42:53.180Z,17.60
2022-10-23T12:45:24.778Z,17.60
2022-10-23T12:47:54.227Z,17.60
2022-10-23T12:50:23.905Z,17.60
2022-10-23T12:52:53.577Z,17.60
2022-10-23T12:55:22.245Z,17.60
2022-10-23T12:57:50.481Z,17.70
2022-10-23T13:00:20.959Z,17.70
2022-10-23T13:03:03.723Z,17.80
2022-10-23T13:05:33.023Z,17.80
2022-10-23T13:08:02.119Z,17.90
2022-10-23T13:10:43.767Z,17.90
2022-10-23T13:13:13.710Z,18.00
2022-10-23T13:15:43.459Z,18.00
2022-10-23T13:18:14.463Z,18.00
2022-10-23T13:20:44.268Z,18.00
2022-10-23T13:23:18.641Z,18.10
2022-10-23T13:25:55.484Z,18.20
2022-10-23T13:28:26.215Z,18.20
2022-10-23T13:31:06.571Z,18.30
2022-10-23T13:33:40.516Z,18.40
2022-10-23T13:36:23.731Z,18.40
2022-10-23T13:39:02.937Z,18.40
2022-10-23T13:41:35.829Z,18.30
2022-10-23T13:44:03.835Z,18.40
2022-10-23T13:46:31.767Z,18.50
2022-10-23T13:49:00.985Z,18.50
2022-10-23T13:51:30.848Z,18.50
2022-10-23T13:53:59.612Z,18.50
2022-10-23T13:56:29.113Z,18.50
2022-10-23T13:58:57.065Z,18.40
2022-10-23T14:01:28.709Z,18.40
2022-10-23T14:03:57.912Z,18.30
2022-10-23T14:06:27.395Z,18.20
2022-10-23T14:08:55.296Z,18.10
2022-10-23T14:11:23.705Z,18.20
2022-10-23T14:13:52.637Z,18.20
2022-10-23T14:16:21.726Z,18.20
2022-10-23T14:18:50.107Z,18.10
2022-10-23T14:21:20.942Z,18.10
2022-10-23T14:23:51.419Z,18.10
2022-10-23T14:26:22.799Z,18.00
2022-10-23T14:28:53.969Z,18.00
2022-10-23T14:31:22.872Z,17.90
2022-10-23T14:33:54.456Z,17.80
2022-10-23T14:36:22.922Z,17.80
2022-10-23T14:38:56.297Z,17.70
2022-10-23T14:41:25.227Z,17.60
2022-10-23T14:43:53.446Z,17.60
2022-10-23T14:46:24.725Z,17.60
2022-10-23T14:48:58.739Z,17.60
2022-10-23T14:51:31.027Z,17.60
2022-10-23T14:54:01.966Z,17.70
2022-10-23T14:56:31.977Z,17.70
2022-10-23T14:59:02.705Z,17.70
2022-10-23T15:01:31.255Z,17.80
2022-10-23T15:03:59.276Z,17.70
2022-10-23T15:06:27.442Z,17.70
2022-10-23T15:08:55.865Z,17.70
2022-10-23T15:11:26.139Z,17.60
2022-10-23T15:13:55.268Z,17.60
2022-10-23T15:16:24.294Z,17.50
2022-10-23T15:18:52.246Z,17.50
2022-10-23T15:21:20.756Z,17.50
2022-10-23T15:23:49.591Z,17.40
2022-10-23T15:26:22.486Z,17.40
2022-10-23T15:28:56.273Z,17.30
2022-10-23T15:31:46.527Z,17.30
2022-10-23T15:34:16.800Z,17.20
2022-10-23T15:36:46.811Z,17.20
2022-10-23T15:39:17.445Z,17.20
2022-10-23T15:41:45.671Z,17.10
2022-10-23T15:44:17.965Z,17.10
2022-10-23T15:46:45.894Z,17.00
2022-10-23T15:49:14.098Z,17.00
2022-10-23T15:51:42.989Z,16.90
2022-10-23T15:54:16.344Z,16.90
2022-10-23T15:56:44.583Z,16.90
2022-10-23T15:59:14.360Z,16.80
2022-10-23T16:01:43.143Z,16.80
2022-10-23T16:04:11.841Z,16.70
2022-10-23T16:06:39.860Z,16.70
2022-10-23T16:09:07.778Z,16.70
2022-10-23T16:11:38.088Z,16.60
2022-10-23T16:14:06.575Z,16.60
2022-10-23T16:16:36.020Z,16.60
2022-10-23T16:19:05.273Z,16.50
2022-10-23T16:21:36.182Z,16.50
2022-10-23T16:24:06.819Z,16.50
2022-10-23T16:26:36.134Z,16.40
2022-10-23T16:29:06.927Z,16.50
2022-10-23T16:31:36.466Z,16.40
2022-10-23T16:34:05.844Z,16.40
2022-10-23T16:36:34.594Z,16.40
2022-10-23T16:39:20.064Z,16.40
2022-10-23T16:42:07.035Z,16.40
2022-10-23T16:44:48.489Z,16.30
2022-10-23T16:47:17.724Z,16.30
2022-10-23T16:49:45.679Z,16.30
2022-10-23T16:52:13.551Z,16.30
2022-10-23T16:54:43.619Z,16.30
2022-10-23T16:57:11.467Z,16.30
2022-10-23T16:59:39.331Z,16.30
2022-10-23T17:02:07.854Z,16.30
2022-10-23T17:04:38.841Z,16.30
2022-10-23T17:07:13.002Z,16.20
2022-10-23T17:09:41.263Z,16.20
2022-10-23T17:12:17.069Z,16.20
2022-10-23T17:14:44.929Z,16.20
2022-10-23T17:17:13.528Z,16.20
2022-10-23T17:19:45.472Z,16.20
2022-10-23T17:22:14.939Z,16.20
2022-10-23T17:24:46.195Z,16.20
2022-10-23T17:27:16.802Z,16.20
2022-10-23T17:29:44.687Z,16.20
2022-10-23T17:32:14.050Z,16.10
2022-10-23T17:34:44.544Z,16.10
2022-10-23T17:37:13.218Z,16.00
2022-10-23T17:39:42.160Z,15.90
2022-10-23T17:42:11.377Z,15.90
2022-10-23T17:44:39.337Z,15.90
2022-10-23T17:47:07.211Z,15.90
2022-10-23T17:49:35.084Z,15.90
2022-10-23T17:52:04.560Z,15.90
2022-10-23T17:54:32.446Z,16.00
2022-10-23T17:57:01.403Z,16.00
2022-10-23T17:59:29.295Z,16.00
2022-10-23T18:01:59.952Z,16.00
2022-10-23T18:04:27.978Z,16.00
2022-10-23T18:06:55.851Z,16.00
2022-10-23T18:09:25.111Z,16.00
2022-10-23T18:11:53.257Z,16.00
2022-10-23T18:14:43.986Z,16.10
2022-10-23T18:17:11.921Z,16.00
2022-10-23T18:19:40.017Z,16.00
2022-10-23T18:22:07.963Z,16.00
2022-10-23T18:24:38.180Z,16.00
2022-10-23T18:27:06.948Z,16.00
2022-10-23T18:29:35.210Z,15.90
2022-10-23T18:32:29.726Z,15.90
2022-10-23T18:34:58.830Z,15.90
2022-10-23T18:37:28.862Z,15.90
2022-10-23T18:40:02.162Z,15.90
2022-10-23T18:42:30.419Z,15.90
2022-10-23T18:45:00.346Z,15.80
2022-10-23T18:47:28.369Z,15.80
2022-10-23T18:49:56.292Z,15.80
2022-10-23T18:52:25.271Z,15.80
2022-10-23T18:54:53.150Z,15.80
2022-10-23T18:57:22.354Z,15.70
2022-10-23T18:59:51.010Z,15.70
2022-10-23T19:02:19.072Z,15.70
2022-10-23T19:04:47.206Z,15.70
2022-10-23T19:07:20.554Z,15.70
2022-10-23T19:09:49.028Z,15.60
2022-10-23T19:12:17.923Z,15.60
2022-10-23T19:14:47.312Z,15.60
2022-10-23T19:17:19.441Z,15.60
2022-10-23T19:19:52.724Z,15.60
2022-10-23T19:22:21.921Z,15.60
2022-10-23T19:24:54.573Z,15.60
2022-10-23T19:27:22.685Z,15.60
2022-10-23T19:29:54.402Z,15.60
2022-10-23T19:32:31.576Z,15.60
2022-10-23T19:35:05.679Z,15.60
2022-10-23T19:37:33.696Z,15.60
2022-10-23T19:40:06.641Z,15.60
2022-10-23T19:42:34.998Z,15.60
2022-10-23T19:45:05.015Z,15.60
2022-10-23T19:47:33.121Z,15.60
2022-10-23T19:50:03.341Z,15.60
2022-10-23T19:52:31.347Z,15.50
2022-10-23T19:54:59.361Z,15.60
2022-10-23T19:57:27.562Z,15.50
2022-10-23T19:59:57.807Z,15.50
2022-10-23T20:02:27.422Z,15.50
2022-10-23T20:04:55.654Z,15.50
2022-10-23T20:07:23.614Z,15.60
2022-10-23T20:09:51.521Z,15.60
2022-10-23T20:12:19.425Z,15.60
2022-10-23T20:14:47.329Z,15.60
2022-10-23T20:17:15.222Z,15.60
2022-10-23T20:19:44.660Z,15.60
2022-10-23T20:22:12.816Z,15.60
2022-10-23T20:24:42.220Z,15.60
2022-10-23T20:27:10.955Z,15.60
2022-10-23T20:29:38.837Z,15.50
2022-10-23T20:32:07.569Z,15.50
2022-10-23T20:34:35.704Z,15.50
2022-10-23T20:37:05.069Z,15.50
2022-10-23T20:39:35.598Z,15.50
2022-10-23T20:42:04.116Z,15.50
2022-10-23T20:44:32.223Z,15.50
2022-10-23T20:47:01.364Z,15.40
2022-10-23T20:49:29.527Z,15.40
2022-10-23T20:51:57.914Z,15.40
2022-10-23T20:54:28.798Z,15.40
2022-10-23T20:56:58.735Z,15.40
2022-10-23T20:59:26.766Z,15.40
2022-10-23T21:01:57.094Z,15.40
2022-10-23T21:04:27.835Z,15.40
2022-10-23T21:07:10.389Z,15.40
2022-10-23T21:09:40.952Z,15.50
2022-10-23T21:12:10.001Z,15.50
2022-10-23T21:14:37.987Z,15.50
2022-10-23T21:17:08.261Z,15.40
2022-10-23T21:19:36.549Z,15.40
2022-10-23T21:22:04.458Z,15.40
2022-10-23T21:24:32.315Z,15.40
2022-10-23T21:27:01.547Z,15.40
2022-10-23T21:29:29.398Z,15.30
